Time;durP1;ratioP1;P1;durP2;ratioP2;P2;SDS_P1;SDS_P2;PMS_P1;PMS_P2;Temp;Humidity;BMP_temperature;BMP_pressure;BME280_temperature;BME280_humidity;BME280_pressure;Samples;Min_cycle;Max_cycle;Signal;HPM_P1;HPM_P2
2022/03/13 00:01:31;;;;;;;;;1.00;1.00;;;;;;;;5095101;27;45566;-69
2022/03/13 00:03:57;;;;;;;;;1.00;1.00;;;;;;;;5095539;27;47405;-69
2022/03/13 00:06:32;;;;;;;;;2.00;1.00;;;;;;;;5096037;27;45591;-69
2022/03/13 00:08:57;;;;;;;;;2.00;2.00;;;;;;;;5094953;27;45456;-69
2022/03/13 00:11:23;;;;;;;;;1.00;1.00;;;;;;;;5095201;27;45647;-69
2022/03/13 00:13:53;;;;;;;;;2.00;1.00;;;;;;;;5094752;27;46557;-70
2022/03/13 00:16:18;;;;;;;;;0.75;0.75;;;;;;;;5094295;27;45457;-69
2022/03/13 00:18:47;;;;;;;;;1.00;1.00;;;;;;;;5094755;27;45332;-69
2022/03/13 00:21:16;;;;;;;;;0.25;0.25;;;;;;;;5096443;27;45267;-69
2022/03/13 00:23:42;;;;;;;;;1.00;1.00;;;;;;;;5094474;27;46102;-69
2022/03/13 00:26:08;;;;;;;;;2.00;2.00;;;;;;;;5090355;27;45513;-69
2022/03/13 00:28:33;;;;;;;;;1.00;1.00;;;;;;;;5094801;27;45548;-69
2022/03/13 00:30:58;;;;;;;;;2.00;2.00;;;;;;;;5094326;27;45349;-69
2022/03/13 00:33:24;;;;;;;;;0.00;0.00;;;;;;;;5090821;27;46245;-69
2022/03/13 00:35:49;;;;;;;;;1.00;1.00;;;;;;;;5094375;27;45762;-68
2022/03/13 00:38:15;;;;;;;;;1.00;1.00;;;;;;;;5095025;27;45301;-69
2022/03/13 00:40:40;;;;;;;;;1.00;1.00;;;;;;;;5094992;27;45456;-69
2022/03/13 00:43:07;;;;;;;;;1.00;1.00;;;;;;;;5095787;27;46345;-69
2022/03/13 00:45:33;;;;;;;;;1.25;1.00;;;;;;;;5094795;27;45287;-69
2022/03/13 00:47:58;;;;;;;;;1.50;1.50;;;;;;;;5095225;27;45463;-69
2022/03/13 00:50:23;;;;;;;;;1.00;1.00;;;;;;;;5094825;27;45518;-69
2022/03/13 00:52:49;;;;;;;;;1.00;1.00;;;;;;;;5094275;27;46172;-69
2022/03/13 00:55:14;;;;;;;;;0.75;0.75;;;;;;;;5094227;27;45438;-69
2022/03/13 00:57:42;;;;;;;;;1.00;1.00;;;;;;;;5094831;27;45402;-69
2022/03/13 01:00:10;;;;;;;;;1.50;1.50;;;;;;;;5095403;27;45457;-69
2022/03/13 01:02:35;;;;;;;;;0.50;0.50;;;;;;;;5084537;27;46497;-69
2022/03/13 01:05:01;;;;;;;;;1.00;1.00;;;;;;;;5088602;27;45417;-69
2022/03/13 01:07:26;;;;;;;;;1.00;1.00;;;;;;;;5082586;27;45760;-69
2022/03/13 01:09:52;;;;;;;;;1.00;1.00;;;;;;;;5078501;27;45541;-69
2022/03/13 01:12:17;;;;;;;;;1.00;1.00;;;;;;;;5095413;27;45524;-69
2022/03/13 01:14:42;;;;;;;;;1.25;1.25;;;;;;;;5094045;27;45280;-69
2022/03/13 01:17:08;;;;;;;;;1.25;1.25;;;;;;;;5094257;27;45835;-69
2022/03/13 01:19:33;;;;;;;;;1.00;1.00;;;;;;;;5094125;27;45439;-69
2022/03/13 01:21:59;;;;;;;;;1.00;1.00;;;;;;;;5094666;27;46289;-69
2022/03/13 01:24:28;;;;;;;;;2.00;2.00;;;;;;;;5078979;27;45277;-69
2022/03/13 01:26:55;;;;;;;;;0.00;0.00;;;;;;;;5090708;27;45315;-69
2022/03/13 01:29:21;;;;;;;;;1.00;1.00;;;;;;;;5093850;27;45331;-70
2022/03/13 01:31:47;;;;;;;;;1.00;1.00;;;;;;;;5093603;27;46328;-69
2022/03/13 01:34:13;;;;;;;;;0.75;0.75;;;;;;;;5093543;27;45523;-69
2022/03/13 01:36:39;;;;;;;;;1.00;1.00;;;;;;;;5094148;27;45433;-69
2022/03/13 01:39:06;;;;;;;;;1.00;1.00;;;;;;;;5094828;27;45496;-69
2022/03/13 01:41:34;;;;;;;;;1.00;1.00;;;;;;;;5093971;27;45587;-69
2022/03/13 01:44:00;;;;;;;;;1.00;1.00;;;;;;;;5093987;27;45414;-69
2022/03/13 01:46:25;;;;;;;;;1.50;1.25;;;;;;;;5078685;27;45394;-69
2022/03/13 01:49:02;;;;;;;;;1.00;1.00;;;;;;;;5097472;27;45441;-69
2022/03/13 01:51:28;;;;;;;;;1.50;1.50;;;;;;;;5094261;27;47280;-69
2022/03/13 01:53:55;;;;;;;;;1.00;1.00;;;;;;;;5097285;27;45380;-69
2022/03/13 01:56:21;;;;;;;;;2.00;1.00;;;;;;;;5097408;27;45365;-69
2022/03/13 01:58:48;;;;;;;;;1.00;1.00;;;;;;;;5096438;27;45548;-70
2022/03/13 02:01:13;;;;;;;;;0.75;0.75;;;;;;;;5097457;27;46359;-69
2022/03/13 02:03:38;;;;;;;;;0.75;0.75;;;;;;;;5097526;27;45463;-69
2022/03/13 02:06:04;;;;;;;;;0.75;0.75;;;;;;;;5084685;27;45410;-69
2022/03/13 02:08:29;;;;;;;;;1.00;1.00;;;;;;;;5094237;27;45858;-69
2022/03/13 02:10:54;;;;;;;;;3.75;1.00;;;;;;;;5096465;27;46324;-69
2022/03/13 02:13:20;;;;;;;;;2.00;2.00;;;;;;;;5096459;27;45591;-69
2022/03/13 02:15:45;;;;;;;;;2.25;2.25;;;;;;;;5096791;27;45500;-69
2022/03/13 02:18:11;;;;;;;;;1.00;1.00;;;;;;;;5097942;27;45510;-69
2022/03/13 02:20:41;;;;;;;;;1.50;1.50;;;;;;;;5097142;27;46565;-69
2022/03/13 02:23:14;;;;;;;;;1.00;1.00;;;;;;;;5096482;27;45335;-69
2022/03/13 02:25:39;;;;;;;;;1.00;1.00;;;;;;;;5096863;27;45299;-69
2022/03/13 02:28:05;;;;;;;;;1.00;1.00;;;;;;;;5096803;27;45596;-69
2022/03/13 02:30:30;;;;;;;;;2.00;1.00;;;;;;;;5097277;27;45222;-69
2022/03/13 02:32:55;;;;;;;;;1.00;1.00;;;;;;;;5097461;27;45260;-69
2022/03/13 02:35:20;;;;;;;;;2.00;0.75;;;;;;;;5096410;27;45415;-69
2022/03/13 02:37:46;;;;;;;;;1.00;1.00;;;;;;;;5096544;27;45545;-69
2022/03/13 02:40:21;;;;;;;;;1.00;1.00;;;;;;;;5097164;27;45590;-69
2022/03/13 02:42:47;;;;;;;;;1.00;1.00;;;;;;;;5096283;27;45389;-69
2022/03/13 02:45:21;;;;;;;;;0.00;0.00;;;;;;;;5097158;27;45432;-69
2022/03/13 02:47:46;;;;;;;;;2.00;1.00;;;;;;;;5096178;27;45609;-69
2022/03/13 02:50:12;;;;;;;;;2.00;2.00;;;;;;;;5089662;27;45492;-69
2022/03/13 02:52:39;;;;;;;;;2.00;2.00;;;;;;;;5095672;27;45335;-69
2022/03/13 02:55:04;;;;;;;;;2.00;0.75;;;;;;;;5094868;27;45529;-69
2022/03/13 02:57:29;;;;;;;;;1.00;1.00;;;;;;;;5092911;27;45483;-69
2022/03/13 02:59:54;;;;;;;;;1.00;1.00;;;;;;;;5084669;27;45564;-69
2022/03/13 03:02:20;;;;;;;;;1.75;0.25;;;;;;;;5092336;27;45440;-70
2022/03/13 03:04:48;;;;;;;;;1.00;1.00;;;;;;;;5095880;27;45382;-69
2022/03/13 03:07:13;;;;;;;;;1.00;1.00;;;;;;;;5096310;27;45470;-69
2022/03/13 03:09:38;;;;;;;;;0.50;0.50;;;;;;;;5077988;27;45719;-69
2022/03/13 03:12:04;;;;;;;;;0.00;0.00;;;;;;;;5096727;27;45285;-69
2022/03/13 03:14:30;;;;;;;;;1.00;0.25;;;;;;;;5095832;27;45507;-69
2022/03/13 03:16:56;;;;;;;;;1.00;1.00;;;;;;;;5096160;27;45537;-69
2022/03/13 03:19:21;;;;;;;;;0.75;0.75;;;;;;;;5095317;27;46287;-69
2022/03/13 03:21:47;;;;;;;;;0.50;0.50;;;;;;;;5096560;27;45547;-69
2022/03/13 03:24:17;;;;;;;;;1.00;1.00;;;;;;;;5096833;27;45407;-69
2022/03/13 03:26:42;;;;;;;;;1.00;1.00;;;;;;;;5095547;27;45562;-69
2022/03/13 03:29:07;;;;;;;;;1.00;1.00;;;;;;;;5095100;27;47016;-69
2022/03/13 03:31:33;;;;;;;;;1.00;1.00;;;;;;;;5094798;27;45376;-69
2022/03/13 03:33:58;;;;;;;;;1.00;0.75;;;;;;;;5080245;27;45436;-69
2022/03/13 03:36:24;;;;;;;;;1.00;1.00;;;;;;;;5096917;27;45309;-69
2022/03/13 03:38:49;;;;;;;;;0.25;0.25;;;;;;;;5083579;27;45805;-69
2022/03/13 03:41:14;;;;;;;;;1.00;1.00;;;;;;;;5091169;27;45385;-69
2022/03/13 03:43:40;;;;;;;;;1.00;1.00;;;;;;;;5095476;27;45479;-69
2022/03/13 03:46:05;;;;;;;;;0.00;0.00;;;;;;;;5096022;27;45468;-69
2022/03/13 03:48:31;;;;;;;;;0.75;0.75;;;;;;;;5095852;27;45395;-69
2022/03/13 03:50:56;;;;;;;;;1.00;0.25;;;;;;;;5095723;27;45487;-69
2022/03/13 03:53:21;;;;;;;;;1.00;1.00;;;;;;;;5095131;27;45391;-69
2022/03/13 03:55:48;;;;;;;;;0.50;0.50;;;;;;;;5095503;27;45515;-69
2022/03/13 03:58:13;;;;;;;;;1.00;1.00;;;;;;;;5095281;27;45547;-69
2022/03/13 04:00:39;;;;;;;;;0.75;0.75;;;;;;;;5095600;27;45622;-69
2022/03/13 04:03:04;;;;;;;;;0.50;0.50;;;;;;;;5096416;27;45362;-69
2022/03/13 04:05:30;;;;;;;;;1.00;1.00;;;;;;;;5095250;27;45542;-69
2022/03/13 04:07:55;;;;;;;;;0.75;0.75;;;;;;;;5089771;27;45346;-69
2022/03/13 04:10:20;;;;;;;;;0.75;0.75;;;;;;;;5095016;27;45452;-69
2022/03/13 04:12:45;;;;;;;;;0.75;0.25;;;;;;;;5095625;27;45342;-69
2022/03/13 04:15:10;;;;;;;;;0.25;0.25;;;;;;;;5096039;27;45434;-69
2022/03/13 04:17:36;;;;;;;;;1.00;1.00;;;;;;;;5094730;27;46769;-69
2022/03/13 04:20:05;;;;;;;;;0.50;0.50;;;;;;;;5095065;27;45523;-69
2022/03/13 04:22:30;;;;;;;;;0.75;0.75;;;;;;;;5094449;27;45272;-69
2022/03/13 04:24:56;;;;;;;;;1.00;0.00;;;;;;;;5094675;27;45563;-69
2022/03/13 04:27:21;;;;;;;;;1.00;1.00;;;;;;;;5096014;27;45523;-69
2022/03/13 04:29:47;;;;;;;;;0.00;0.00;;;;;;;;5094344;27;45501;-69
2022/03/13 04:32:12;;;;;;;;;0.75;0.75;;;;;;;;5094963;27;45559;-69
2022/03/13 04:34:37;;;;;;;;;0.75;0.25;;;;;;;;5094940;27;45370;-69
2022/03/13 04:37:03;;;;;;;;;1.25;0.75;;;;;;;;5093627;27;46082;-69
2022/03/13 04:39:28;;;;;;;;;0.25;0.25;;;;;;;;5095854;27;45347;-69
2022/03/13 04:41:54;;;;;;;;;0.25;0.25;;;;;;;;5094901;27;45314;-68
2022/03/13 04:44:20;;;;;;;;;0.00;0.00;;;;;;;;5094989;27;45526;-68
2022/03/13 04:46:45;;;;;;;;;1.00;1.00;;;;;;;;5093824;27;46969;-69
2022/03/13 04:49:11;;;;;;;;;1.00;1.00;;;;;;;;5094896;27;45445;-68
2022/03/13 04:51:38;;;;;;;;;0.00;0.00;;;;;;;;5094667;27;45397;-69
2022/03/13 04:54:04;;;;;;;;;0.00;0.00;;;;;;;;5095404;27;45620;-68
2022/03/13 04:56:29;;;;;;;;;1.00;1.00;;;;;;;;5089628;27;46362;-69
2022/03/13 04:58:54;;;;;;;;;0.00;0.00;;;;;;;;5076313;27;45256;-69
2022/03/13 05:01:20;;;;;;;;;1.00;1.00;;;;;;;;5094583;27;45394;-69
2022/03/13 05:03:45;;;;;;;;;0.50;0.50;;;;;;;;5094467;27;45536;-68
2022/03/13 05:06:11;;;;;;;;;0.50;0.50;;;;;;;;5095236;27;46226;-69
2022/03/13 05:08:36;;;;;;;;;1.00;1.00;;;;;;;;5084267;27;45389;-69
2022/03/13 05:11:05;;;;;;;;;1.00;1.00;;;;;;;;5087435;27;45540;-69
2022/03/13 05:13:30;;;;;;;;;0.00;0.00;;;;;;;;5094861;27;45294;-69
2022/03/13 05:15:55;;;;;;;;;0.00;0.00;;;;;;;;5094644;27;46463;-69
2022/03/13 05:18:20;;;;;;;;;0.00;0.00;;;;;;;;5095144;27;45499;-69
2022/03/13 05:20:46;;;;;;;;;0.75;0.75;;;;;;;;5097571;27;45224;-68
2022/03/13 05:23:11;;;;;;;;;1.25;1.25;;;;;;;;5098174;27;45475;-68
2022/03/13 05:25:37;;;;;;;;;0.25;0.00;;;;;;;;5097573;27;46413;-68
2022/03/13 05:28:03;;;;;;;;;1.00;1.00;;;;;;;;5097831;27;45281;-69
2022/03/13 05:30:29;;;;;;;;;0.25;0.25;;;;;;;;5098570;27;45321;-69
2022/03/13 05:32:54;;;;;;;;;0.25;0.25;;;;;;;;5098540;27;45347;-68
2022/03/13 05:35:19;;;;;;;;;1.00;1.00;;;;;;;;5097107;27;47281;-68
2022/03/13 05:37:45;;;;;;;;;0.00;0.00;;;;;;;;5097818;27;45313;-68
2022/03/13 05:40:14;;;;;;;;;0.00;0.00;;;;;;;;5097914;27;45390;-68
2022/03/13 05:42:40;;;;;;;;;0.50;0.50;;;;;;;;5097657;27;45531;-69
2022/03/13 05:45:05;;;;;;;;;1.00;1.00;;;;;;;;5098340;27;46018;-69
2022/03/13 05:47:31;;;;;;;;;0.00;0.00;;;;;;;;5097026;27;45576;-68
2022/03/13 05:49:59;;;;;;;;;0.75;0.75;;;;;;;;5092834;27;45373;-69
2022/03/13 05:52:24;;;;;;;;;0.00;0.00;;;;;;;;5091273;27;45480;-69
2022/03/13 05:54:49;;;;;;;;;0.50;0.50;;;;;;;;5080487;27;46582;-68
2022/03/13 05:57:15;;;;;;;;;0.75;0.75;;;;;;;;5083369;27;45418;-69
2022/03/13 05:59:40;;;;;;;;;0.00;0.00;;;;;;;;5096387;27;45398;-68
2022/03/13 06:02:06;;;;;;;;;1.00;0.25;;;;;;;;5097483;27;45448;-69
2022/03/13 06:04:32;;;;;;;;;0.33;0.33;;;;;;;;5096389;27;46105;-69
2022/03/13 06:06:58;;;;;;;;;1.00;1.00;;;;;;;;5094220;27;45516;-69
2022/03/13 06:09:23;;;;;;;;;0.00;0.00;;;;;;;;5098511;27;45405;-68
2022/03/13 06:11:48;;;;;;;;;1.00;0.25;;;;;;;;5097059;27;45420;-69
2022/03/13 06:14:14;;;;;;;;;0.50;0.50;;;;;;;;5090312;27;46726;-69
2022/03/13 06:16:39;;;;;;;;;1.00;1.00;;;;;;;;5093231;27;45518;-69
2022/03/13 06:19:05;;;;;;;;;0.50;0.50;;;;;;;;5096476;27;45432;-69
2022/03/13 06:21:30;;;;;;;;;0.00;0.00;;;;;;;;5098057;27;45458;-68
2022/03/13 06:23:55;;;;;;;;;1.00;1.00;;;;;;;;5096005;27;46395;-70
2022/03/13 06:26:20;;;;;;;;;0.00;0.00;;;;;;;;5095304;27;45375;-70
2022/03/13 06:28:45;;;;;;;;;1.00;1.00;;;;;;;;5095355;27;45294;-71
2022/03/13 06:31:12;;;;;;;;;1.25;1.25;;;;;;;;5094135;27;45305;-71
2022/03/13 06:33:37;;;;;;;;;0.75;0.75;;;;;;;;5094752;27;46407;-73
2022/03/13 06:36:03;;;;;;;;;0.25;0.25;;;;;;;;5095805;27;45371;-70
2022/03/13 06:38:28;;;;;;;;;0.50;0.50;;;;;;;;5095023;27;45432;-71
2022/03/13 06:40:53;;;;;;;;;1.00;1.00;;;;;;;;5095786;27;45490;-72
2022/03/13 06:43:18;;;;;;;;;0.00;0.00;;;;;;;;5095703;27;46173;-71
2022/03/13 06:45:44;;;;;;;;;0.25;0.25;;;;;;;;5096898;27;45236;-70
2022/03/13 06:48:11;;;;;;;;;1.00;1.00;;;;;;;;5096047;27;45414;-70
2022/03/13 06:50:37;;;;;;;;;1.00;1.00;;;;;;;;5095704;27;45671;-70
2022/03/13 06:53:02;;;;;;;;;1.25;1.25;;;;;;;;5095527;27;46699;-70
2022/03/13 06:55:27;;;;;;;;;1.25;1.00;;;;;;;;5096762;27;45988;-70
2022/03/13 06:57:52;;;;;;;;;1.25;1.00;;;;;;;;5096219;27;45472;-70
2022/03/13 07:00:18;;;;;;;;;1.00;1.00;;;;;;;;5096728;27;46573;-70
2022/03/13 07:02:43;;;;;;;;;1.00;1.00;;;;;;;;5095048;27;46187;-70
2022/03/13 07:05:09;;;;;;;;;1.00;0.00;;;;;;;;5095176;27;45532;-70
2022/03/13 07:07:34;;;;;;;;;2.00;0.25;;;;;;;;5094718;27;45477;-72
2022/03/13 07:09:59;;;;;;;;;1.00;1.00;;;;;;;;5080540;27;45422;-70
2022/03/13 07:12:25;;;;;;;;;2.00;1.00;;;;;;;;5097284;27;46574;-70
2022/03/13 07:14:50;;;;;;;;;1.00;1.00;;;;;;;;5096003;27;45511;-67
2022/03/13 07:17:16;;;;;;;;;0.00;0.00;;;;;;;;5095807;27;45462;-68
2022/03/13 07:19:43;;;;;;;;;2.00;1.00;;;;;;;;5096665;27;45542;-67
2022/03/13 07:22:10;;;;;;;;;0.00;0.00;;;;;;;;5096478;27;47298;-68
2022/03/13 07:24:35;;;;;;;;;0.00;0.00;;;;;;;;5096550;27;45373;-68
2022/03/13 07:27:00;;;;;;;;;0.75;0.75;;;;;;;;5086280;27;45366;-68
2022/03/13 07:29:26;;;;;;;;;0.00;0.00;;;;;;;;5095702;27;45585;-68
2022/03/13 07:31:52;;;;;;;;;0.00;0.00;;;;;;;;5095339;27;45439;-67
2022/03/13 07:34:17;;;;;;;;;0.75;0.75;;;;;;;;5095497;27;49588;-67
2022/03/13 07:36:42;;;;;;;;;1.25;0.00;;;;;;;;5096112;27;45437;-68
2022/03/13 07:39:07;;;;;;;;;1.00;1.00;;;;;;;;5082999;27;45543;-67
2022/03/13 07:41:33;;;;;;;;;0.25;0.25;;;;;;;;5087942;27;45542;-68
2022/03/13 07:43:58;;;;;;;;;1.25;1.25;;;;;;;;5095577;27;45383;-68
2022/03/13 07:46:23;;;;;;;;;0.75;0.75;;;;;;;;5095343;27;45538;-68
2022/03/13 07:48:48;;;;;;;;;0.25;0.25;;;;;;;;5095455;27;45474;-67
2022/03/13 07:51:14;;;;;;;;;0.50;0.50;;;;;;;;5095742;27;45352;-68
2022/03/13 07:53:39;;;;;;;;;0.25;0.25;;;;;;;;5095256;27;47135;-68
2022/03/13 07:56:05;;;;;;;;;0.00;0.00;;;;;;;;5095824;27;45651;-68
2022/03/13 07:58:32;;;;;;;;;0.00;0.00;;;;;;;;5095772;27;45466;-68
2022/03/13 08:00:58;;;;;;;;;1.00;0.00;;;;;;;;5094194;27;46097;-68
2022/03/13 08:03:29;;;;;;;;;0.00;0.00;;;;;;;;5092268;27;45362;-68
2022/03/13 08:05:55;;;;;;;;;0.00;0.00;;;;;;;;5095677;27;45541;-67
2022/03/13 08:08:20;;;;;;;;;0.00;0.00;;;;;;;;5095215;27;45338;-68
2022/03/13 08:10:45;;;;;;;;;1.00;1.00;;;;;;;;5095080;27;46679;-68
2022/03/13 08:13:10;;;;;;;;;1.00;1.00;;;;;;;;5095090;27;45350;-68
2022/03/13 08:15:36;;;;;;;;;2.00;0.00;;;;;;;;5094937;27;45516;-68
2022/03/13 08:18:02;;;;;;;;;0.75;0.75;;;;;;;;5095962;27;45508;-67
2022/03/13 08:20:28;;;;;;;;;0.25;0.25;;;;;;;;5094965;27;47068;-68
2022/03/13 08:22:53;;;;;;;;;0.75;0.00;;;;;;;;5094546;27;45515;-68
2022/03/13 08:25:19;;;;;;;;;0.25;0.25;;;;;;;;5095206;27;45654;-69
2022/03/13 08:27:45;;;;;;;;;1.00;1.00;;;;;;;;5072630;27;45589;-67
2022/03/13 08:30:11;;;;;;;;;1.00;1.00;;;;;;;;5095600;27;46409;-67
2022/03/13 08:32:37;;;;;;;;;1.50;0.75;;;;;;;;5089988;27;45528;-68
2022/03/13 08:35:03;;;;;;;;;1.00;1.00;;;;;;;;5094755;27;45530;-67
2022/03/13 08:37:28;;;;;;;;;0.00;0.00;;;;;;;;5095035;27;45505;-67
2022/03/13 08:39:53;;;;;;;;;0.00;0.00;;;;;;;;5094562;27;46123;-67
2022/03/13 08:42:18;;;;;;;;;0.75;0.75;;;;;;;;5095990;27;45428;-67
2022/03/13 08:44:44;;;;;;;;;0.00;0.00;;;;;;;;5094930;27;45559;-67
2022/03/13 08:47:09;;;;;;;;;1.00;1.00;;;;;;;;5094299;27;45493;-67
2022/03/13 08:49:34;;;;;;;;;1.00;0.00;;;;;;;;5094884;27;45493;-68
2022/03/13 08:51:59;;;;;;;;;0.25;0.25;;;;;;;;5094632;27;45547;-68
2022/03/13 08:54:25;;;;;;;;;0.00;0.00;;;;;;;;5097443;27;45359;-69
2022/03/13 08:56:50;;;;;;;;;0.00;0.00;;;;;;;;5098034;27;45382;-68
2022/03/13 08:59:16;;;;;;;;;1.00;1.00;;;;;;;;5097868;27;45561;-67
2022/03/13 09:01:41;;;;;;;;;1.00;1.00;;;;;;;;5093330;27;45576;-68
2022/03/13 09:04:06;;;;;;;;;0.00;0.00;;;;;;;;5098250;27;45618;-69
2022/03/13 09:06:32;;;;;;;;;0.00;0.00;;;;;;;;5098278;27;45490;-68
2022/03/13 09:08:57;;;;;;;;;1.00;1.00;;;;;;;;5098507;27;45600;-68
2022/03/13 09:11:22;;;;;;;;;0.75;0.75;;;;;;;;5079453;27;45456;-68
2022/03/13 09:13:47;;;;;;;;;1.00;0.75;;;;;;;;5097695;27;45400;-69
2022/03/13 09:16:13;;;;;;;;;0.00;0.00;;;;;;;;5098398;27;45574;-69
2022/03/13 09:18:39;;;;;;;;;0.25;0.25;;;;;;;;5097566;27;45390;-69
2022/03/13 09:21:05;;;;;;;;;1.25;0.25;;;;;;;;5099029;27;45220;-69
2022/03/13 09:23:30;;;;;;;;;0.00;0.00;;;;;;;;5098460;27;45431;-69
2022/03/13 09:25:56;;;;;;;;;3.00;0.50;;;;;;;;5098260;27;45544;-68
2022/03/13 09:28:21;;;;;;;;;0.50;0.00;;;;;;;;5097322;27;47047;-68
2022/03/13 09:30:46;;;;;;;;;0.50;0.50;;;;;;;;5097593;27;45280;-69
2022/03/13 09:33:14;;;;;;;;;1.00;0.00;;;;;;;;5098976;27;45513;-69
2022/03/13 09:35:40;;;;;;;;;1.00;1.00;;;;;;;;5097594;27;45546;-69
2022/03/13 09:38:05;;;;;;;;;0.00;0.00;;;;;;;;5097325;27;45364;-69
2022/03/13 09:40:33;;;;;;;;;0.50;0.00;;;;;;;;5097910;27;45334;-68
2022/03/13 09:42:58;;;;;;;;;0.50;0.50;;;;;;;;5097431;27;45436;-69
2022/03/13 09:45:23;;;;;;;;;0.00;0.00;;;;;;;;5098909;27;45203;-69
2022/03/13 09:47:49;;;;;;;;;1.25;0.00;;;;;;;;5097620;27;46263;-69
2022/03/13 09:50:15;;;;;;;;;1.50;1.00;;;;;;;;5090550;27;45549;-69
2022/03/13 09:52:41;;;;;;;;;2.00;1.00;;;;;;;;5093678;27;45384;-68
2022/03/13 09:55:08;;;;;;;;;0.00;0.00;;;;;;;;5097077;27;45398;-69
2022/03/13 09:57:35;;;;;;;;;1.75;0.50;;;;;;;;5096688;27;46633;-68
2022/03/13 10:00:01;;;;;;;;;0.50;0.50;;;;;;;;5096915;27;45580;-69
2022/03/13 10:02:37;;;;;;;;;0.00;0.00;;;;;;;;5089295;27;45430;-68
2022/03/13 10:05:09;;;;;;;;;0.00;0.00;;;;;;;;5085120;27;45457;-68
2022/03/13 10:07:54;;;;;;;;;0.00;0.00;;;;;;;;5092251;27;45579;-67
2022/03/13 10:10:20;;;;;;;;;0.00;0.00;;;;;;;;5096730;27;45515;-69
2022/03/13 10:12:46;;;;;;;;;1.00;1.00;;;;;;;;5096883;27;45615;-68
2022/03/13 10:15:13;;;;;;;;;1.00;1.00;;;;;;;;5097896;27;45468;-69
2022/03/13 10:17:39;;;;;;;;;0.75;0.75;;;;;;;;5097046;27;45341;-69
2022/03/13 10:20:15;;;;;;;;;0.00;0.00;;;;;;;;5096582;27;45457;-69
2022/03/13 10:22:42;;;;;;;;;0.00;0.00;;;;;;;;5096799;27;45309;-69
2022/03/13 10:25:07;;;;;;;;;0.00;0.00;;;;;;;;5077921;27;45407;-69
2022/03/13 10:27:33;;;;;;;;;0.00;0.00;;;;;;;;5097350;27;45598;-69
2022/03/13 10:30:00;;;;;;;;;0.50;0.50;;;;;;;;5097596;27;45289;-68
2022/03/13 10:32:26;;;;;;;;;0.00;0.00;;;;;;;;5092263;27;45490;-68
2022/03/13 10:34:56;;;;;;;;;0.75;0.75;;;;;;;;5096801;27;45500;-68
2022/03/13 10:37:38;;;;;;;;;0.00;0.00;;;;;;;;5096137;27;46397;-69
2022/03/13 10:40:08;;;;;;;;;0.00;0.00;;;;;;;;5081410;27;45388;-69
2022/03/13 10:42:40;;;;;;;;;1.00;1.00;;;;;;;;5096995;27;45495;-69
2022/03/13 10:45:06;;;;;;;;;0.00;0.00;;;;;;;;5097588;27;45593;-69
2022/03/13 10:47:32;;;;;;;;;0.00;0.00;;;;;;;;5094549;27;46412;-69
2022/03/13 10:49:57;;;;;;;;;0.00;0.00;;;;;;;;5096687;27;45309;-68
2022/03/13 10:52:22;;;;;;;;;1.00;1.00;;;;;;;;5097014;27;45430;-68
2022/03/13 10:54:48;;;;;;;;;0.50;0.50;;;;;;;;5096184;27;45538;-68
2022/03/13 10:57:13;;;;;;;;;1.00;1.00;;;;;;;;5113410;27;46956;-67
2022/03/13 10:59:41;;;;;;;;;0.25;0.25;;;;;;;;5096519;27;45650;-68
2022/03/13 11:02:26;;;;;;;;;0.00;0.00;;;;;;;;5096742;27;45363;-68
2022/03/13 11:04:52;;;;;;;;;0.25;0.25;;;;;;;;5096266;27;45529;-68
2022/03/13 11:07:19;;;;;;;;;0.00;0.00;;;;;;;;5095867;27;46037;-68
2022/03/13 11:09:44;;;;;;;;;0.75;0.75;;;;;;;;5095919;27;45302;-69
2022/03/13 11:12:15;;;;;;;;;1.00;1.00;;;;;;;;5097070;27;45356;-68
2022/03/13 11:14:41;;;;;;;;;2.50;1.00;;;;;;;;5096028;27;45371;-68
2022/03/13 11:17:08;;;;;;;;;2.00;0.50;;;;;;;;5094695;27;47326;-69
2022/03/13 11:19:34;;;;;;;;;1.00;1.00;;;;;;;;5096185;27;45484;-68
2022/03/13 11:22:03;;;;;;;;;0.25;0.25;;;;;;;;5096257;27;45961;-69
2022/03/13 11:24:28;;;;;;;;;0.00;0.00;;;;;;;;5096875;27;45457;-69
2022/03/13 11:26:57;;;;;;;;;0.00;0.00;;;;;;;;5095867;27;46827;-68
2022/03/13 11:29:40;;;;;;;;;0.00;0.00;;;;;;;;5095752;27;45529;-69
2022/03/13 11:32:24;;;;;;;;;1.00;1.00;;;;;;;;5096093;27;48616;-67
2022/03/13 11:35:08;;;;;;;;;0.00;0.00;;;;;;;;5095502;27;45505;-68
2022/03/13 11:37:33;;;;;;;;;0.50;0.50;;;;;;;;5095532;27;47086;-68
2022/03/13 11:39:59;;;;;;;;;0.50;0.50;;;;;;;;5096523;27;45510;-68
2022/03/13 11:42:24;;;;;;;;;1.00;1.00;;;;;;;;5092408;27;45426;-68
2022/03/13 11:44:50;;;;;;;;;0.50;0.00;;;;;;;;5095923;27;45616;-68
2022/03/13 11:47:20;;;;;;;;;0.00;0.00;;;;;;;;5094992;27;47291;-69
2022/03/13 11:49:46;;;;;;;;;0.00;0.00;;;;;;;;5095230;27;45271;-68
2022/03/13 11:52:17;;;;;;;;;1.50;0.00;;;;;;;;5095138;27;45493;-68
2022/03/13 11:54:46;;;;;;;;;0.00;0.00;;;;;;;;5095187;27;45344;-68
2022/03/13 11:57:12;;;;;;;;;0.25;0.25;;;;;;;;5080559;27;46580;-69
2022/03/13 11:59:37;;;;;;;;;0.00;0.00;;;;;;;;5092060;27;45322;-69
2022/03/13 12:02:03;;;;;;;;;0.00;0.00;;;;;;;;5090861;27;45449;-69
2022/03/13 12:04:28;;;;;;;;;0.00;0.00;;;;;;;;5085500;27;45305;-69
2022/03/13 12:06:56;;;;;;;;;1.25;0.25;;;;;;;;5094620;27;45671;-69
2022/03/13 12:09:30;;;;;;;;;0.25;0.25;;;;;;;;5095958;27;45515;-69
2022/03/13 12:11:55;;;;;;;;;0.00;0.00;;;;;;;;5095792;27;45420;-69
2022/03/13 12:14:20;;;;;;;;;0.75;0.75;;;;;;;;5095278;27;45426;-69
2022/03/13 12:17:03;;;;;;;;;0.25;0.25;;;;;;;;5095378;27;46481;-69
2022/03/13 12:19:36;;;;;;;;;0.00;0.00;;;;;;;;5095093;27;45482;-68
2022/03/13 12:22:03;;;;;;;;;0.50;0.50;;;;;;;;5081742;27;45229;-68
2022/03/13 12:24:32;;;;;;;;;0.00;0.00;;;;;;;;5096103;27;45368;-68
2022/03/13 12:27:00;;;;;;;;;0.00;0.00;;;;;;;;5095195;27;46432;-68
2022/03/13 12:29:28;;;;;;;;;0.00;0.00;;;;;;;;5094923;27;45427;-68
2022/03/13 12:31:53;;;;;;;;;2.00;0.00;;;;;;;;5091867;27;45400;-68
2022/03/13 12:34:31;;;;;;;;;0.50;0.50;;;;;;;;5081272;27;45525;-68
2022/03/13 12:37:02;;;;;;;;;0.00;0.00;;;;;;;;5077983;27;46642;-69
2022/03/13 12:39:27;;;;;;;;;1.00;0.00;;;;;;;;5080200;27;45498;-68
2022/03/13 12:41:57;;;;;;;;;0.75;0.75;;;;;;;;5094607;27;45482;-69
2022/03/13 12:44:22;;;;;;;;;0.00;0.00;;;;;;;;5094633;27;45478;-68
2022/03/13 12:46:51;;;;;;;;;0.75;0.75;;;;;;;;5094628;27;46541;-68
2022/03/13 12:49:18;;;;;;;;;1.00;1.00;;;;;;;;5094604;27;45341;-68
2022/03/13 12:51:45;;;;;;;;;0.75;0.75;;;;;;;;5078684;27;45569;-69
2022/03/13 12:54:10;;;;;;;;;1.00;1.00;;;;;;;;5075226;28;45339;-69
2022/03/13 12:56:44;;;;;;;;;0.00;0.00;;;;;;;;5071396;28;45511;-68
2022/03/13 12:59:20;;;;;;;;;1.50;1.00;;;;;;;;5074017;28;45500;-69
2022/03/13 13:01:45;;;;;;;;;1.00;0.25;;;;;;;;5074329;27;45776;-69
2022/03/13 13:04:13;;;;;;;;;0.50;0.50;;;;;;;;5074121;28;45825;-68
2022/03/13 13:06:40;;;;;;;;;0.00;0.00;;;;;;;;5073148;28;46205;-69
2022/03/13 13:09:05;;;;;;;;;0.00;0.00;;;;;;;;5061410;28;45422;-69
2022/03/13 13:11:35;;;;;;;;;0.00;0.00;;;;;;;;5070416;28;45521;-68
2022/03/13 13:14:01;;;;;;;;;0.00;0.00;;;;;;;;5074334;28;45685;-68
2022/03/13 13:16:27;;;;;;;;;1.00;1.00;;;;;;;;5069519;27;46362;-68
2022/03/13 13:18:53;;;;;;;;;0.00;0.00;;;;;;;;5073247;28;45313;-68
2022/03/13 13:21:30;;;;;;;;;0.00;0.00;;;;;;;;5074605;28;45386;-68
2022/03/13 13:23:56;;;;;;;;;0.00;0.00;;;;;;;;5074650;28;45558;-68
2022/03/13 13:26:21;;;;;;;;;0.50;0.50;;;;;;;;5073461;28;45471;-69
2022/03/13 13:28:58;;;;;;;;;0.00;0.00;;;;;;;;5074003;28;45478;-68
2022/03/13 13:31:23;;;;;;;;;0.00;0.00;;;;;;;;5074456;28;45470;-68
2022/03/13 13:33:49;;;;;;;;;0.25;0.25;;;;;;;;5073672;27;45414;-69
2022/03/13 13:36:19;;;;;;;;;0.00;0.00;;;;;;;;5074478;28;47272;-68
2022/03/13 13:38:44;;;;;;;;;0.00;0.00;;;;;;;;5073478;28;45363;-67
2022/03/13 13:41:09;;;;;;;;;0.00;0.00;;;;;;;;5076247;28;45383;-68
2022/03/13 13:43:43;;;;;;;;;0.00;0.00;;;;;;;;5077069;27;45545;-67
2022/03/13 13:46:10;;;;;;;;;0.00;0.00;;;;;;;;5058391;28;47144;-68
2022/03/13 13:48:38;;;;;;;;;0.75;0.75;;;;;;;;5076926;28;45382;-68
2022/03/13 13:51:22;;;;;;;;;1.00;1.00;;;;;;;;5063748;28;45408;-69
2022/03/13 13:53:48;;;;;;;;;0.25;0.25;;;;;;;;5075321;28;45380;-68
2022/03/13 13:56:14;;;;;;;;;0.50;0.50;;;;;;;;5057901;28;46809;-68
2022/03/13 13:58:39;;;;;;;;;0.25;0.25;;;;;;;;5076521;27;45360;-67
2022/03/13 14:01:23;;;;;;;;;0.00;0.00;;;;;;;;5059251;28;45368;-67
2022/03/13 14:03:49;;;;;;;;;0.75;0.00;;;;;;;;5075749;28;45353;-67
2022/03/13 14:06:18;;;;;;;;;0.25;0.25;;;;;;;;5058682;28;46598;-69
2022/03/13 14:08:44;;;;;;;;;0.25;0.25;;;;;;;;5076568;28;45442;-68
2022/03/13 14:11:10;;;;;;;;;1.00;0.50;;;;;;;;5076355;28;45421;-68
2022/03/13 14:13:35;;;;;;;;;1.50;0.50;;;;;;;;5058313;28;45522;-68
2022/03/13 14:16:00;;;;;;;;;0.00;0.00;;;;;;;;5076934;28;45713;-68
2022/03/13 14:18:26;;;;;;;;;1.00;1.00;;;;;;;;5077709;28;45391;-68
2022/03/13 14:20:51;;;;;;;;;0.00;0.00;;;;;;;;5065281;28;45258;-68
2022/03/13 14:23:16;;;;;;;;;2.00;0.00;;;;;;;;5071387;28;45290;-67
2022/03/13 14:25:41;;;;;;;;;1.00;1.00;;;;;;;;5076856;28;45626;-68
2022/03/13 14:28:07;;;;;;;;;0.25;0.00;;;;;;;;5076473;28;45237;-68
2022/03/13 14:30:33;;;;;;;;;1.00;1.00;;;;;;;;5077279;27;45391;-68
2022/03/13 14:32:58;;;;;;;;;0.50;0.50;;;;;;;;5063942;28;45315;-68
2022/03/13 14:35:23;;;;;;;;;0.00;0.00;;;;;;;;5072160;28;46187;-68
2022/03/13 14:37:48;;;;;;;;;1.00;0.00;;;;;;;;5076238;28;45340;-68
2022/03/13 14:40:14;;;;;;;;;0.25;0.25;;;;;;;;5076913;28;45469;-67